Current Conditions
Partly Cloudy
Conditions



Pressure
29.96 (inHG) - 1014.52 (mb)
Visibility

10.0 (miles) - 16.1 (km)
Temperature
88  °F
Temperature
73  °F
Dewpoint
62  %
 Humidity
Wind Speed
3  mph
3  kts
5  km/h
1.3  m/s
Wind Direction
N
45°
E
90°
135°
S
180°
225°
W
270°
315°
Calm

Due North
Airport Data
KAVP
Wilkes Barre Scranton International Airport
Metar :KAVP 091954Z VRB03KT 10SM FEW048 SCT060 BKN075 31/23 A2996 RMK AO2 SLP133 T03110228
Tue 9th August 15:54 pm
Raw Metar Info
Raw METAR is the most common format in the world for the transmission of observational weather data. It is highly standardized through the International Civil Aviation Organization (ICAO), which allows it to be understood throughout most of the world.
API Info
Data Provided by
https://www.checkwx.com/weather/KAVP

Aviation Weather providing METAR, TAF, AIRMET, SIGMET and OUTLOOK Weather Reports
© Info
CSS/SVG/PHP scripts were developed by weather34 for use in the weather34 template © 2015-2022

Guide Info provided by Metar-Wikipedia